Terminal Aerodrome Forecast
Issued by NWS

Home | Current Version | Previous Version | Text Only | Print | Product List | Glossary On
Versions: 1 2 3 4 5 6 7 8 9 10 11 12 13 14
000
FTUS41 KCAR 231724
TAFFVE
TAF
KFVE 231724Z 2318/2418 25007KT P6SM SCT250
     FM240800 21004KT P6SM FEW080 SCT250 WS020/26030KT
     FM241400 24011G18KT P6SM SCT200=

USA.gov is the U.S. government's official web portal to all federal, state and local government web resources and services.